Time;durP1;ratioP1;P1;durP2;ratioP2;P2;SDS_P1;SDS_P2;PMS_P1;PMS_P2;Temp;Humidity;BMP_temperature;BMP_pressure;BME280_temperature;BME280_humidity;BME280_pressure;Samples;Min_cycle;Max_cycle;Signal;HPM_P1;HPM_P2
2023/07/29 00:00:27;;;;;;;1.80;1.10;;;;;;;23.60;34.63;98553.31;5055655;28;20036;-68
2023/07/29 00:02:53;;;;;;;2.35;1.20;;;;;;;23.54;34.70;98548.81;5039886;28;20040;-70
2023/07/29 00:05:18;;;;;;;2.90;1.33;;;;;;;23.51;34.24;98552.69;5074280;28;20454;-69
2023/07/29 00:07:44;;;;;;;2.80;1.08;;;;;;;23.54;34.37;98559.47;5071832;28;20059;-69
2023/07/29 00:10:09;;;;;;;2.47;1.20;;;;;;;23.56;34.27;98565.41;5055669;28;20040;-71
2023/07/29 00:12:35;;;;;;;2.60;1.20;;;;;;;23.56;34.54;98554.75;5055974;28;20016;-68
2023/07/29 00:15:00;;;;;;;3.40;1.65;;;;;;;23.53;34.25;98557.81;5055699;28;20098;-69
2023/07/29 00:17:26;;;;;;;5.32;1.40;;;;;;;23.49;34.39;98554.75;5038998;28;20419;-69
2023/07/29 00:19:52;;;;;;;2.45;1.20;;;;;;;23.46;34.12;98549.84;5071345;28;20114;-69
2023/07/29 00:22:17;;;;;;;2.85;1.20;;;;;;;23.49;34.46;98552.91;5056032;28;20020;-70
2023/07/29 00:24:43;;;;;;;4.88;1.38;;;;;;;23.46;34.20;98544.50;5038499;28;20037;-70
2023/07/29 00:27:08;;;;;;;2.15;1.48;;;;;;;23.43;34.27;98548.41;5072603;28;20545;-70
2023/07/29 00:29:33;;;;;;;2.40;1.42;;;;;;;23.42;34.54;98544.13;5072220;28;20037;-70
2023/07/29 00:31:59;;;;;;;2.03;1.10;;;;;;;23.40;34.64;98548.81;5038783;28;20029;-71
2023/07/29 00:34:24;;;;;;;3.58;1.35;;;;;;;23.35;34.64;98535.28;5038563;28;20039;-70
2023/07/29 00:36:50;;;;;;;3.60;1.15;;;;;;;23.31;34.84;98528.75;5071122;28;20037;-70
2023/07/29 00:39:16;;;;;;;2.67;1.27;;;;;;;23.29;34.93;98528.94;5072272;28;20028;-70
2023/07/29 00:41:41;;;;;;;2.97;1.25;;;;;;;23.27;34.65;98532.84;5071595;28;20446;-70
2023/07/29 00:44:07;;;;;;;3.75;1.63;;;;;;;23.25;34.85;98524.25;5072081;28;20499;-70
2023/07/29 00:46:34;;;;;;;2.53;1.40;;;;;;;23.18;34.71;98518.06;5071713;28;20025;-70
2023/07/29 00:48:59;;;;;;;2.37;1.30;;;;;;;23.19;34.94;98525.06;5054069;28;20049;-70
2023/07/29 00:51:25;;;;;;;2.20;1.10;;;;;;;23.17;35.17;98522.59;5071877;28;20093;-70
2023/07/29 00:53:50;;;;;;;1.70;1.10;;;;;;;23.14;35.39;98528.31;5072600;28;20384;-70
2023/07/29 00:56:16;;;;;;;2.80;1.30;;;;;;;23.12;35.18;98520.53;5038641;28;20078;-71
2023/07/29 00:58:41;;;;;;;2.15;1.13;;;;;;;23.11;35.71;98518.06;5055013;28;20495;-71
2023/07/29 01:01:07;;;;;;;3.35;1.30;;;;;;;23.03;35.73;98508.41;5071746;28;20025;-70
2023/07/29 01:03:32;;;;;;;2.50;1.35;;;;;;;23.02;35.62;98509.44;5054817;28;20090;-70
2023/07/29 01:06:18;;;;;;;4.15;1.30;;;;;;;22.98;36.24;98515.34;5055072;28;20071;-69
2023/07/29 01:08:55;;;;;;;2.17;1.13;;;;;;;22.91;36.23;98513.53;5071643;28;20028;-68
2023/07/29 01:11:55;;;;;;;1.52;1.10;;;;;;;22.86;36.39;98509.81;5071227;28;20416;-69
2023/07/29 01:14:24;;;;;;;2.08;1.10;;;;;;;22.84;36.19;98503.88;5033374;28;20052;-70
2023/07/29 01:16:53;;;;;;;5.93;1.30;;;;;;;22.83;36.32;98500.38;5050835;28;20072;-70
2023/07/29 01:19:44;;;;;;;5.70;1.45;;;;;;;22.77;36.41;98495.88;5033974;28;20040;-70
2023/07/29 01:22:10;;;;;;;3.65;1.10;;;;;;;22.73;36.21;98507.97;5033792;28;20032;-70
2023/07/29 01:24:36;;;;;;;2.85;1.58;;;;;;;22.71;36.77;98510.00;5016794;28;20039;-70
2023/07/29 01:27:03;;;;;;;1.58;1.10;;;;;;;22.69;36.74;98510.22;5050607;28;20036;-70
2023/07/29 01:29:29;;;;;;;3.05;1.42;;;;;;;22.66;36.86;98509.75;5049941;28;20403;-70
2023/07/29 01:31:56;;;;;;;2.33;1.30;;;;;;;22.63;36.67;98505.69;5033839;28;20143;-70
2023/07/29 01:34:28;;;;;;;2.22;1.27;;;;;;;22.64;36.82;98504.66;5033548;28;20025;-70
2023/07/29 01:36:54;;;;;;;1.73;1.08;;;;;;;22.61;36.83;98509.56;5033939;28;20033;-70
2023/07/29 01:39:20;;;;;;;2.00;1.30;;;;;;;22.59;36.99;98507.91;5016611;28;20045;-70
2023/07/29 01:41:45;;;;;;;2.65;1.13;;;;;;;22.58;36.55;98513.44;5017007;28;20032;-70
2023/07/29 01:44:11;;;;;;;2.58;1.13;;;;;;;22.58;36.65;98502.78;5049694;28;20514;-73
2023/07/29 01:46:36;;;;;;;9.70;1.40;;;;;;;22.54;37.02;98510.34;5032813;28;20041;-70
2023/07/29 01:49:02;;;;;;;4.80;1.42;;;;;;;22.50;36.87;98506.47;5049581;28;20631;-70
2023/07/29 01:51:27;;;;;;;2.95;1.33;;;;;;;22.52;36.73;98506.28;5047383;28;20055;-70
2023/07/29 01:53:55;;;;;;;4.63;1.38;;;;;;;22.51;36.95;98512.59;5070550;28;20036;-70
2023/07/29 01:56:20;;;;;;;7.55;1.35;;;;;;;22.51;37.13;98512.59;5053822;28;20135;-70
2023/07/29 01:58:46;;;;;;;2.33;1.23;;;;;;;22.44;37.21;98512.59;5054465;28;20111;-72
2023/07/29 02:01:11;;;;;;;3.15;1.30;;;;;;;22.42;37.09;98516.44;5070372;28;20037;-70
2023/07/29 02:03:37;;;;;;;2.03;1.30;;;;;;;22.38;36.83;98516.03;5070701;28;20044;-73
2023/07/29 02:06:02;;;;;;;6.30;1.55;;;;;;;22.41;36.92;98518.28;5053783;28;20056;-71
2023/07/29 02:08:28;;;;;;;13.82;1.13;;;;;;;22.43;36.79;98518.09;5070427;28;20032;-70
2023/07/29 02:10:53;;;;;;;2.80;1.35;;;;;;;22.40;36.98;98522.78;5053884;28;20072;-71
2023/07/29 02:13:19;;;;;;;2.95;1.00;;;;;;;22.34;37.42;98523.56;5054237;28;20033;-70
2023/07/29 02:15:44;;;;;;;7.22;1.67;;;;;;;22.36;37.71;98531.34;5070713;28;20055;-70
2023/07/29 02:18:10;;;;;;;3.88;1.45;;;;;;;22.33;37.58;98534.41;5054319;28;20036;-70
2023/07/29 02:20:35;;;;;;;2.55;1.25;;;;;;;22.28;37.44;98532.34;5070558;28;20036;-70
2023/07/29 02:23:01;;;;;;;1.65;1.13;;;;;;;22.28;37.41;98545.63;5036877;28;20070;-70
2023/07/29 02:25:26;;;;;;;2.42;1.45;;;;;;;22.20;37.60;98535.97;5071995;28;20055;-70
2023/07/29 02:27:52;;;;;;;2.03;1.30;;;;;;;22.22;37.85;98552.53;5053517;28;20446;-70
2023/07/29 02:30:17;;;;;;;1.88;1.20;;;;;;;22.15;37.49;98542.88;5069447;28;20491;-70
2023/07/29 02:32:43;;;;;;;2.88;1.30;;;;;;;22.11;37.69;98542.47;5037058;28;20060;-70
2023/07/29 02:35:08;;;;;;;2.70;1.30;;;;;;;22.05;37.81;98536.09;5053924;28;20454;-71
2023/07/29 02:37:34;;;;;;;3.03;1.30;;;;;;;22.06;37.50;98536.91;5053558;28;20445;-70
2023/07/29 02:40:00;;;;;;;1.83;1.15;;;;;;;22.00;37.53;98537.69;5070412;28;20047;-70
2023/07/29 02:42:25;;;;;;;3.00;1.40;;;;;;;22.00;37.59;98543.00;5070469;28;20032;-70
2023/07/29 02:44:51;;;;;;;2.30;1.10;;;;;;;21.98;37.34;98547.69;5070844;28;20686;-70
2023/07/29 02:47:16;;;;;;;3.58;1.60;;;;;;;21.95;37.00;98537.44;5071164;28;20041;-71
2023/07/29 02:49:42;;;;;;;2.80;1.25;;;;;;;21.94;37.24;98541.13;5070286;28;20522;-71
2023/07/29 02:52:07;;;;;;;2.10;1.15;;;;;;;21.97;37.30;98546.06;5053065;28;20037;-71
2023/07/29 02:54:32;;;;;;;2.45;1.35;;;;;;;21.97;37.25;98538.91;5071019;28;20033;-71
2023/07/29 02:56:58;;;;;;;3.13;1.40;;;;;;;21.98;36.99;98532.59;5053520;28;20036;-72
2023/07/29 02:59:24;;;;;;;2.00;1.23;;;;;;;21.96;37.04;98533.78;5056331;28;20522;-71
2023/07/29 03:01:50;;;;;;;3.38;1.23;;;;;;;22.00;36.67;98532.38;5057756;28;20025;-71
2023/07/29 03:04:15;;;;;;;2.15;1.20;;;;;;;22.01;37.08;98544.63;5074167;28;20048;-72
2023/07/29 03:06:40;;;;;;;3.03;1.40;;;;;;;21.99;37.13;98541.38;5040653;28;20090;-72
2023/07/29 03:09:06;;;;;;;2.08;1.40;;;;;;;21.99;36.63;98542.19;5057308;28;20029;-71
2023/07/29 03:11:31;;;;;;;3.30;1.40;;;;;;;22.00;37.19;98545.69;5073971;28;20495;-72
2023/07/29 03:13:57;;;;;;;2.85;1.27;;;;;;;22.02;37.13;98548.94;5073882;28;20109;-71
2023/07/29 03:16:22;;;;;;;2.47;1.20;;;;;;;22.12;36.93;98544.09;5073930;28;20029;-71
2023/07/29 03:18:48;;;;;;;2.03;1.33;;;;;;;22.44;36.17;98547.16;5057363;28;20024;-70
2023/07/29 03:21:14;;;;;;;5.05;1.50;;;;;;;22.83;35.21;98545.63;5056342;28;20033;-69
2023/07/29 03:23:39;;;;;;;11.40;1.42;;;;;;;23.41;36.16;98545.13;5057408;28;20036;-72
2023/07/29 03:26:10;;;;;;;14.95;1.85;;;;;;;24.08;34.80;98546.94;5057604;28;20533;-75
2023/07/29 03:28:37;;;;;;;9.15;1.80;;;;;;;24.95;33.21;98547.41;5075109;28;20037;-78
2023/07/29 03:31:03;;;;;;;8.25;1.40;;;;;;;25.23;32.33;98548.88;5073890;28;20495;-72
2023/07/29 03:33:28;;;;;;;4.63;1.35;;;;;;;25.26;32.43;98551.09;5073061;28;20044;-74
2023/07/29 03:35:54;;;;;;;4.00;1.45;;;;;;;25.69;31.12;98541.53;5057126;28;20032;-73
2023/07/29 03:38:19;;;;;;;5.88;1.30;;;;;;;26.15;30.34;98546.41;5076053;28;20028;-71
2023/07/29 03:40:45;;;;;;;2.65;1.40;;;;;;;26.62;29.72;98555.78;5093846;28;20059;-72
2023/07/29 03:43:10;;;;;;;2.58;1.35;;;;;;;27.08;29.06;98557.81;5072545;28;20064;-72
2023/07/29 03:45:36;;;;;;;4.32;1.35;;;;;;;27.57;28.67;98560.38;5049088;28;20047;-72
2023/07/29 03:48:02;;;;;;;3.72;1.38;;;;;;;28.06;27.85;98568.22;5092901;28;20105;-71
2023/07/29 03:50:28;;;;;;;3.55;1.27;;;;;;;28.59;27.06;98571.78;5092697;28;20043;-72
2023/07/29 03:52:54;;;;;;;7.70;1.40;;;;;;;29.05;26.66;98569.13;5093077;28;20024;-72
2023/07/29 03:55:20;;;;;;;4.00;1.35;;;;;;;29.51;25.92;98571.78;5090400;28;20036;-72
2023/07/29 03:57:46;;;;;;;2.65;1.27;;;;;;;30.04;25.46;98578.53;5050381;28;20055;-71
2023/07/29 04:00:11;;;;;;;7.35;1.40;;;;;;;30.61;24.62;98576.56;5060518;28;20492;-71
2023/07/29 04:02:40;;;;;;;4.80;1.50;;;;;;;31.11;24.28;98580.09;5071202;28;20080;-71
2023/07/29 04:05:08;;;;;;;5.35;1.38;;;;;;;31.60;23.44;98571.09;5070187;28;20086;-72
2023/07/29 04:07:37;;;;;;;5.03;1.42;;;;;;;32.23;22.72;98582.84;5072296;28;20052;-72
2023/07/29 04:10:03;;;;;;;4.15;1.35;;;;;;;32.83;21.99;98585.25;5072663;28;20066;-73
2023/07/29 04:12:28;;;;;;;4.47;1.50;;;;;;;33.43;20.89;98585.63;5076057;28;20058;-72
2023/07/29 04:14:54;;;;;;;5.00;1.10;;;;;;;33.99;21.01;98583.94;5072033;28;20040;-74
2023/07/29 04:17:19;;;;;;;5.75;1.52;;;;;;;34.56;20.26;98579.97;5072141;28;20040;-73
2023/07/29 04:19:45;;;;;;;5.70;1.58;;;;;;;35.02;19.72;98575.41;5055953;28;20476;-73
2023/07/29 04:22:10;;;;;;;10.23;1.52;;;;;;;35.55;19.16;98589.13;5072908;28;20044;-73
2023/07/29 04:24:36;;;;;;;7.82;1.48;;;;;;;36.04;18.57;98587.28;5072963;28;20029;-73
2023/07/29 04:27:01;;;;;;;4.18;1.45;;;;;;;36.50;18.04;98592.22;5070576;28;20024;-72
2023/07/29 04:29:27;;;;;;;6.20;1.48;;;;;;;37.05;17.53;98594.47;5093648;28;20105;-72
2023/07/29 04:31:53;;;;;;;6.38;1.45;;;;;;;37.56;17.50;98587.44;5092752;28;20487;-73
2023/07/29 04:34:18;;;;;;;9.93;1.83;;;;;;;38.04;16.88;98591.75;5094211;28;20443;-73
2023/07/29 04:36:47;;;;;;;9.65;1.60;;;;;;;38.52;16.98;98588.63;5074866;28;20088;-72
2023/07/29 04:39:12;;;;;;;7.00;1.60;;;;;;;38.99;16.23;98593.88;5075511;28;20028;-72
2023/07/29 04:41:38;;;;;;;9.32;1.85;;;;;;;39.45;16.07;98600.19;5092770;28;20035;-72
2023/07/29 04:44:03;;;;;;;17.60;2.20;;;;;;;39.89;15.96;98593.06;5075651;28;20028;-74
2023/07/29 04:46:29;;;;;;;7.93;1.98;;;;;;;40.30;15.60;98589.19;5072933;28;20035;-72
2023/07/29 04:48:54;;;;;;;10.77;1.65;;;;;;;40.81;15.09;98595.09;5055046;28;20033;-72
2023/07/29 04:51:20;;;;;;;13.43;1.73;;;;;;;41.25;14.97;98594.31;5073435;28;20029;-72
2023/07/29 04:53:46;;;;;;;10.30;1.90;;;;;;;41.67;14.24;98594.56;5054734;28;20047;-73
2023/07/29 04:56:11;;;;;;;11.02;1.88;;;;;;;42.06;14.06;98607.16;5071792;28;20021;-72
2023/07/29 04:58:37;;;;;;;12.00;1.80;;;;;;;42.44;13.92;98600.06;5072725;28;20500;-72
2023/07/29 05:01:03;;;;;;;3.30;1.37;;;;;;;42.79;13.49;98595.16;5073399;28;20035;-72
2023/07/29 05:03:28;;;;;;;5.18;1.40;;;;;;;43.18;13.60;98593.06;5072067;28;20049;-72
2023/07/29 05:05:55;;;;;;;9.70;1.80;;;;;;;43.55;13.19;98597.91;5077536;28;20048;-75
2023/07/29 05:08:21;;;;;;;7.05;1.27;;;;;;;43.91;13.13;98607.38;5091958;28;20043;-72
2023/07/29 05:10:50;;;;;;;9.67;1.47;;;;;;;44.26;12.61;98607.72;5075583;28;20477;-72
2023/07/29 05:13:16;;;;;;;6.15;1.10;;;;;;;44.57;12.85;98608.28;5058422;28;20036;-71
2023/07/29 05:15:41;;;;;;;4.27;1.00;;;;;;;44.90;12.55;98612.81;5074984;28;20085;-72
2023/07/29 05:18:07;;;;;;;6.50;1.10;;;;;;;45.25;12.55;98612.25;5109663;28;20089;-71
2023/07/29 05:20:32;;;;;;;4.60;1.20;;;;;;;45.45;12.45;98611.25;5091957;28;20039;-72
2023/07/29 05:22:58;;;;;;;5.90;1.20;;;;;;;45.69;11.79;98620.53;5089273;28;20139;-73
2023/07/29 05:25:23;;;;;;;5.67;1.30;;;;;;;46.00;12.22;98627.22;5089611;28;20024;-72
2023/07/29 05:27:49;;;;;;;6.00;1.20;;;;;;;46.20;11.48;98617.88;5056588;28;20511;-73
2023/07/29 05:30:14;;;;;;;5.20;1.27;;;;;;;46.42;11.66;98623.91;5071922;28;20089;-75
2023/07/29 05:32:40;;;;;;;7.30;1.40;;;;;;;46.54;11.40;98615.53;5073123;28;20119;-72
2023/07/29 05:35:06;;;;;;;8.27;1.43;;;;;;;46.79;10.91;98620.78;5073188;28;20051;-72
2023/07/29 05:37:31;;;;;;;4.00;1.30;;;;;;;46.92;10.60;98629.75;5073839;28;20032;-73
2023/07/29 05:39:57;;;;;;;4.70;1.77;;;;;;;46.98;10.59;98628.28;5091169;28;20040;-73
2023/07/29 05:42:22;;;;;;;7.40;1.35;;;;;;;47.14;11.03;98628.22;5074056;28;20123;-71
2023/07/29 05:44:48;;;;;;;3.37;1.57;;;;;;;47.25;10.72;98626.44;5074262;28;20066;-72
2023/07/29 05:47:13;;;;;;;5.53;1.70;;;;;;;47.28;10.40;98630.47;5066209;28;20399;-73
2023/07/29 05:49:39;;;;;;;6.67;1.70;;;;;;;47.32;10.63;98625.03;5054210;28;20032;-73
2023/07/29 05:52:05;;;;;;;5.47;1.30;;;;;;;47.41;10.80;98626.38;5037533;28;20105;-73
2023/07/29 05:54:30;;;;;;;4.88;1.40;;;;;;;47.40;10.94;98626.78;5037670;28;20036;-73
2023/07/29 05:56:56;;;;;;;8.40;1.53;;;;;;;47.53;10.65;98622.66;5037637;28;20037;-74
2023/07/29 05:59:21;;;;;;;5.23;1.30;;;;;;;47.50;11.21;98623.41;5038156;28;20044;-73
2023/07/29 06:01:47;;;;;;;5.60;1.20;;;;;;;47.44;11.02;98628.41;5092318;28;20031;-79
2023/07/29 06:04:12;;;;;;;5.30;1.20;;;;;;;47.11;11.04;98620.66;5075344;28;20072;-75
2023/07/29 06:06:38;;;;;;;15.50;1.33;;;;;;;47.16;11.00;98623.13;5090579;28;20028;-73
2023/07/29 06:09:03;;;;;;;3.97;1.10;;;;;;;47.22;11.09;98627.19;5057897;28;20085;-74
2023/07/29 06:11:28;;;;;;;2.93;1.40;;;;;;;47.28;11.18;98617.44;5092277;28;20031;-72
2023/07/29 06:13:54;;;;;;;2.30;1.10;;;;;;;47.29;10.58;98624.59;5073314;28;20040;-76
2023/07/29 06:16:19;;;;;;;4.23;1.30;;;;;;;47.34;10.46;98623.50;5056582;28;20475;-77
2023/07/29 06:18:45;;;;;;;3.13;0.97;;;;;;;47.33;10.88;98615.56;5074585;28;20039;-74
2023/07/29 06:21:16;;;;;;;6.57;1.20;;;;;;;47.36;11.21;98625.91;5074206;28;20083;-73
2023/07/29 06:23:43;;;;;;;4.55;1.17;;;;;;;47.38;10.94;98620.78;5075084;28;20032;-73
2023/07/29 06:26:08;;;;;;;;;;;;;;;47.20;11.19;98618.47;5074638;28;20085;-72
2023/07/29 06:28:33;;;;;;;;;;;;;;;47.18;10.72;98622.78;5074168;28;20601;-76
2023/07/29 06:30:59;;;;;;;5.10;1.27;;;;;;;47.19;10.99;98627.91;5074237;28;19912;-75
2023/07/29 06:33:24;;;;;;;7.20;1.23;;;;;;;47.24;10.77;98624.06;5055974;28;20040;-73
2023/07/29 06:35:50;;;;;;;4.00;1.10;;;;;;;47.18;11.53;98620.81;5073710;28;20040;-73
2023/07/29 06:38:21;;;;;;;2.63;1.10;;;;;;;47.09;11.38;98614.69;5073555;28;20094;-74
2023/07/29 06:40:46;;;;;;;3.83;1.02;;;;;;;47.06;11.66;98618.19;5074575;28;20146;-72
2023/07/29 06:43:12;;;;;;;2.53;0.80;;;;;;;46.94;11.46;98619.94;5087331;28;20029;-75
2023/07/29 06:45:37;;;;;;;7.40;1.10;;;;;;;46.86;11.68;98612.66;5069524;28;20075;-73
2023/07/29 06:48:03;;;;;;;6.33;1.27;;;;;;;46.84;11.69;98619.69;5071238;28;20060;-72
2023/07/29 06:50:29;;;;;;;4.30;0.93;;;;;;;46.81;11.23;98621.19;5069032;28;20032;-71
2023/07/29 06:52:54;;;;;;;7.27;1.00;;;;;;;46.70;11.19;98615.47;5069990;28;20263;-72
2023/07/29 06:55:20;;;;;;;6.20;1.20;;;;;;;46.53;11.71;98604.81;5053256;28;20051;-72
2023/07/29 06:57:45;;;;;;;5.80;1.30;;;;;;;46.39;11.12;98603.34;5071399;28;20028;-72
2023/07/29 07:00:11;;;;;;;4.95;1.27;;;;;;;46.31;11.28;98617.34;5053682;28;20051;-72
2023/07/29 07:02:36;;;;;;;8.07;1.20;;;;;;;46.25;11.96;98618.78;5069772;28;20036;-70
2023/07/29 07:05:02;;;;;;;7.13;1.20;;;;;;;46.09;12.01;98605.78;5070153;28;20420;-71
2023/07/29 07:07:27;;;;;;;2.33;1.10;;;;;;;46.01;11.90;98610.31;5053149;28;20048;-68
2023/07/29 07:09:53;;;;;;;2.93;0.90;;;;;;;45.96;12.38;98601.50;5069619;28;20036;-69
2023/07/29 07:12:18;;;;;;;2.93;1.20;;;;;;;45.91;11.53;98604.53;5069079;28;20044;-70
2023/07/29 07:14:44;;;;;;;7.17;1.30;;;;;;;45.80;11.93;98598.75;5077781;28;20181;-73
2023/07/29 07:17:09;;;;;;;100.90;18.93;;;;;;;45.54;13.29;98593.75;5076937;28;20384;-69
2023/07/29 07:19:35;;;;;;;37.90;7.60;;;;;;;45.25;12.30;98588.25;5073551;28;20545;-68
2023/07/29 07:22:00;;;;;;;29.23;5.90;;;;;;;45.21;12.47;98578.28;5054025;28;20069;-70
2023/07/29 07:24:26;;;;;;;22.17;5.70;;;;;;;45.19;12.66;98581.41;5091024;28;20436;-70
2023/07/29 07:26:51;;;;;;;12.50;3.40;;;;;;;45.18;12.02;98577.03;5073584;28;20036;-70
2023/07/29 07:29:17;;;;;;;20.13;4.13;;;;;;;45.18;12.54;98584.50;5091296;28;20440;-70
2023/07/29 07:31:44;;;;;;;11.03;3.50;;;;;;;45.14;12.42;98574.19;5090426;28;20036;-69
2023/07/29 07:34:09;;;;;;;11.52;3.00;;;;;;;45.12;12.43;98571.00;5072914;28;20560;-68
2023/07/29 07:36:35;;;;;;;9.70;2.53;;;;;;;45.03;12.56;98562.06;5073285;28;20036;-78
2023/07/29 07:39:00;;;;;;;10.10;3.17;;;;;;;44.95;12.59;98565.75;5052182;28;20047;-69
2023/07/29 07:41:26;;;;;;;10.07;2.90;;;;;;;44.94;12.30;98564.94;5078925;28;20035;-68
2023/07/29 07:43:51;;;;;;;7.93;2.40;;;;;;;44.91;12.92;98565.63;5081072;28;20033;-68
2023/07/29 07:46:17;;;;;;;6.37;2.13;;;;;;;44.80;12.87;98579.13;5071606;28;20025;-68
2023/07/29 07:48:42;;;;;;;9.27;2.53;;;;;;;44.66;12.28;98573.19;5073880;28;20025;-68
2023/07/29 07:51:12;;;;;;;9.30;2.30;;;;;;;44.34;12.26;98567.50;5072166;28;20544;-68
2023/07/29 07:53:37;;;;;;;8.27;1.95;;;;;;;44.36;12.15;98562.47;5071994;28;20025;-68
2023/07/29 07:56:03;;;;;;;9.67;2.03;;;;;;;44.29;12.16;98570.50;5055420;28;20041;-68
2023/07/29 07:58:28;;;;;;;13.73;2.03;;;;;;;44.28;12.26;98574.38;5055407;28;20135;-69
2023/07/29 08:01:04;;;;;;;6.93;2.03;;;;;;;44.22;12.89;98557.34;5074325;28;20380;-68
2023/07/29 08:03:29;;;;;;;3.67;1.67;;;;;;;44.09;12.93;98564.75;5073127;28;20475;-69
2023/07/29 08:05:55;;;;;;;3.67;1.57;;;;;;;44.03;12.41;98566.13;5072870;28;20064;-68
2023/07/29 08:08:21;;;;;;;7.77;1.50;;;;;;;43.96;12.45;98563.16;5074528;28;20033;-68
2023/07/29 08:10:46;;;;;;;5.80;1.33;;;;;;;43.84;12.08;98560.41;5074339;28;20024;-68
2023/07/29 08:13:11;;;;;;;3.30;1.37;;;;;;;43.79;12.38;98555.13;5074713;28;20025;-68
2023/07/29 08:15:37;;;;;;;4.00;1.70;;;;;;;43.78;12.73;98553.53;5056126;28;20072;-68
2023/07/29 08:18:03;;;;;;;5.53;1.40;;;;;;;43.64;12.44;98549.13;5055884;28;20036;-68
2023/07/29 08:20:28;;;;;;;2.83;1.53;;;;;;;43.60;12.66;98550.16;5073091;28;20115;-68
2023/07/29 08:22:54;;;;;;;5.57;1.90;;;;;;;43.46;12.77;98543.06;5072995;28;20052;-68
2023/07/29 08:25:19;;;;;;;4.80;1.40;;;;;;;43.41;12.58;98540.50;5072229;28;20102;-68
2023/07/29 08:27:45;;;;;;;6.47;1.40;;;;;;;43.37;12.94;98542.31;5074822;28;20086;-69
2023/07/29 08:30:10;;;;;;;3.17;1.70;;;;;;;43.11;12.87;98537.09;5054947;28;20040;-68
2023/07/29 08:32:36;;;;;;;4.00;1.03;;;;;;;43.01;13.24;98539.13;5056150;28;20113;-69
2023/07/29 08:35:01;;;;;;;4.83;1.53;;;;;;;42.84;13.36;98542.81;5055507;28;20036;-69
2023/07/29 08:37:27;;;;;;;4.43;1.50;;;;;;;42.79;13.64;98533.97;5055550;28;20094;-69
2023/07/29 08:39:53;;;;;;;4.93;1.30;;;;;;;42.73;13.57;98541.63;5055917;28;20028;-69
2023/07/29 08:42:19;;;;;;;4.15;1.48;;;;;;;42.73;13.76;98527.09;5072402;28;20790;-69
2023/07/29 08:44:45;;;;;;;3.13;1.47;;;;;;;42.69;14.25;98535.19;5056231;28;20028;-68
2023/07/29 08:47:11;;;;;;;4.53;1.40;;;;;;;42.51;14.11;98534.50;5072498;28;20020;-69
2023/07/29 08:49:37;;;;;;;;;;;;;;;42.40;14.33;98527.78;5055878;28;20514;-68
2023/07/29 08:52:02;;;;;;;4.00;1.30;;;;;;;42.36;14.17;98530.41;5072520;28;20354;-69
2023/07/29 08:54:28;;;;;;;3.50;1.40;;;;;;;42.33;14.33;98530.28;5072771;28;20025;-68
2023/07/29 08:56:54;;;;;;;2.85;1.30;;;;;;;42.28;14.52;98523.84;5054908;28;20028;-68
2023/07/29 08:59:19;;;;;;;3.13;1.40;;;;;;;42.26;14.42;98522.59;5055184;28;20048;-68
2023/07/29 09:01:44;;;;;;;3.50;1.67;;;;;;;42.16;14.34;98514.75;5055780;28;20492;-68
2023/07/29 09:04:10;;;;;;;6.13;1.52;;;;;;;41.73;14.17;98527.53;5055838;28;20052;-68
2023/07/29 09:06:38;;;;;;;3.33;1.10;;;;;;;41.36;14.59;98510.72;5054858;28;20478;-68
2023/07/29 09:09:03;;;;;;;4.70;1.40;;;;;;;40.90;14.63;98502.09;5072136;28;20037;-68
2023/07/29 09:11:29;;;;;;;4.80;1.45;;;;;;;41.04;14.54;98505.44;5072170;28;20032;-68
2023/07/29 09:13:54;;;;;;;2.95;1.50;;;;;;;41.03;14.42;98503.03;5072105;28;20055;-69
2023/07/29 09:16:20;;;;;;;5.00;1.33;;;;;;;40.74;14.63;98507.22;5055293;28;20399;-68
2023/07/29 09:18:50;;;;;;;2.25;1.20;;;;;;;40.79;14.93;98501.59;5073016;28;20032;-68
2023/07/29 09:21:15;;;;;;;3.85;1.13;;;;;;;40.73;14.85;98494.66;5055189;28;20048;-69
2023/07/29 09:23:41;;;;;;;6.00;1.25;;;;;;;40.68;15.21;98497.56;5054600;28;20068;-68
2023/07/29 09:26:07;;;;;;;2.75;1.40;;;;;;;40.57;15.19;98499.03;5055076;28;20020;-68
2023/07/29 09:28:39;;;;;;;4.57;1.30;;;;;;;40.37;15.34;98494.97;5037793;28;20071;-69
2023/07/29 09:31:05;;;;;;;6.25;1.13;;;;;;;40.29;15.23;98491.09;5071279;28;20438;-69
2023/07/29 09:33:35;;;;;;;4.72;1.45;;;;;;;40.13;15.51;98479.81;5071223;28;20385;-68
2023/07/29 09:36:00;;;;;;;4.95;1.70;;;;;;;39.79;15.34;98481.34;5054252;28;20078;-69
2023/07/29 09:38:27;;;;;;;6.93;1.58;;;;;;;39.77;15.54;98476.19;5054611;28;20036;-68
2023/07/29 09:40:54;;;;;;;3.63;1.30;;;;;;;39.74;15.65;98474.09;5071552;28;20383;-70
2023/07/29 09:43:20;;;;;;;4.28;1.17;;;;;;;39.69;16.08;98470.69;5054155;28;20032;-69
2023/07/29 09:45:46;;;;;;;2.75;1.30;;;;;;;39.62;15.99;98457.50;5037615;28;20435;-68
2023/07/29 09:48:11;;;;;;;3.10;1.27;;;;;;;39.48;16.02;98468.47;5070596;28;20069;-68
2023/07/29 09:50:37;;;;;;;6.15;1.50;;;;;;;39.41;16.29;98470.84;5054329;28;20032;-68
2023/07/29 09:53:03;;;;;;;2.65;1.40;;;;;;;39.08;16.27;98458.34;5053823;28;20037;-70
2023/07/29 09:55:28;;;;;;;2.10;1.20;;;;;;;38.95;16.35;98461.94;5070977;28;20519;-68
2023/07/29 09:58:00;;;;;;;6.05;1.40;;;;;;;38.96;16.21;98463.53;5054283;28;20039;-68
2023/07/29 10:00:25;;;;;;;2.60;1.30;;;;;;;38.94;16.32;98465.78;5070926;28;20033;-68
2023/07/29 10:02:51;;;;;;;4.47;1.50;;;;;;;38.81;16.60;98456.53;5054004;28;20060;-68
2023/07/29 10:05:16;;;;;;;4.68;1.50;;;;;;;38.81;16.67;98464.72;5070522;28;20048;-68
2023/07/29 10:07:42;;;;;;;4.10;1.33;;;;;;;38.76;16.90;98455.84;5054170;28;20036;-67
2023/07/29 10:10:08;;;;;;;4.93;1.52;;;;;;;38.71;17.03;98456.78;5070638;28;20044;-68
2023/07/29 10:12:34;;;;;;;3.47;1.20;;;;;;;38.69;17.23;98459.03;5070544;28;20102;-68
2023/07/29 10:15:06;;;;;;;4.17;1.40;;;;;;;38.64;17.48;98449.03;5070633;28;20366;-68
2023/07/29 10:17:36;;;;;;;4.10;1.42;;;;;;;38.58;17.48;98452.19;5071320;28;20102;-69
2023/07/29 10:20:01;;;;;;;4.93;1.40;;;;;;;38.57;17.39;98456.00;5070571;28;20056;-69
2023/07/29 10:22:34;;;;;;;2.28;1.30;;;;;;;38.45;17.55;98441.00;5070778;28;20059;-68
2023/07/29 10:25:07;;;;;;;2.40;1.30;;;;;;;38.31;17.02;98442.97;5071031;28;20028;-69
2023/07/29 10:27:43;;;;;;;8.00;1.50;;;;;;;38.09;17.10;98439.06;5070412;28;20028;-69
2023/07/29 10:30:11;;;;;;;5.70;1.50;;;;;;;37.71;17.48;98438.50;5070442;28;20028;-69
2023/07/29 10:32:36;;;;;;;3.15;1.33;;;;;;;37.62;17.21;98438.38;5053736;28;20063;-69
2023/07/29 10:35:02;;;;;;;4.28;1.40;;;;;;;37.58;17.84;98430.00;5053504;28;20426;-69
2023/07/29 10:37:27;;;;;;;5.50;1.65;;;;;;;37.49;17.80;98420.94;5054017;28;20041;-68
2023/07/29 10:39:54;;;;;;;4.40;1.27;;;;;;;37.54;17.80;98425.47;5053203;28;20033;-70
2023/07/29 10:42:19;;;;;;;5.43;1.40;;;;;;;37.30;17.97;98426.47;5053698;28;20392;-69
2023/07/29 10:44:51;;;;;;;3.08;1.60;;;;;;;37.17;18.00;98419.09;5036825;28;20028;-68
2023/07/29 10:47:24;;;;;;;4.18;1.40;;;;;;;37.07;18.26;98418.16;5071186;28;20043;-68
2023/07/29 10:49:55;;;;;;;2.70;1.52;;;;;;;37.02;18.10;98426.41;5071789;28;20025;-68
2023/07/29 10:52:35;;;;;;;3.33;1.55;;;;;;;36.90;17.76;98416.00;5069928;28;20440;-68
2023/07/29 10:55:02;;;;;;;4.03;1.42;;;;;;;36.86;18.03;98412.28;5071225;28;20031;-67
2023/07/29 10:57:34;;;;;;;3.25;1.40;;;;;;;36.67;18.34;98411.47;5070756;28;20115;-70
2023/07/29 11:00:00;;;;;;;3.08;1.50;;;;;;;36.34;18.38;98403.28;5053361;28;20032;-67
2023/07/29 11:02:46;;;;;;;8.10;1.60;;;;;;;36.12;18.72;98407.38;5053711;28;20033;-69
2023/07/29 11:05:18;;;;;;;5.47;1.50;;;;;;;36.01;18.78;98404.00;5069756;28;20121;-69
2023/07/29 11:07:45;;;;;;;3.45;1.50;;;;;;;35.79;18.74;98393.69;5070071;28;20033;-69
2023/07/29 11:10:11;;;;;;;2.23;1.43;;;;;;;35.78;18.56;98396.69;5070574;28;20116;-68
2023/07/29 11:12:47;;;;;;;5.27;1.50;;;;;;;35.78;18.92;98394.78;5070690;28;20052;-68
2023/07/29 11:15:17;;;;;;;6.55;1.50;;;;;;;35.75;18.97;98399.97;5070132;28;20111;-68
2023/07/29 11:17:53;;;;;;;4.18;1.60;;;;;;;35.42;19.19;98392.47;5070439;28;20020;-69
2023/07/29 11:20:21;;;;;;;5.65;1.50;;;;;;;35.48;19.35;98385.88;5072831;28;20071;-69
2023/07/29 11:22:47;;;;;;;5.55;1.40;;;;;;;35.48;19.28;98385.09;5057697;28;20039;-69
2023/07/29 11:25:14;;;;;;;1.98;1.35;;;;;;;35.40;19.14;98381.09;5073402;28;20437;-69
2023/07/29 11:27:39;;;;;;;4.15;1.45;;;;;;;35.36;19.77;98382.81;5073700;28;20040;-70
2023/07/29 11:30:09;;;;;;;4.18;1.40;;;;;;;35.26;19.45;98378.28;5074379;28;20111;-68